Time;durP1;ratioP1;P1;durP2;ratioP2;P2;SDS_P1;SDS_P2;PMS_P1;PMS_P2;Temp;Humidity;BMP_temperature;BMP_pressure;BME280_temperature;BME280_humidity;BME280_pressure;Samples;Min_cycle;Max_cycle;Signal;HPM_P1;HPM_P2
2021/12/10 00:01:20;;;;;;;21.33;16.05;;;7.70;87.50;;;;;;5045337;28;20037;-83
2021/12/10 00:03:50;;;;;;;22.15;17.00;;;7.80;87.60;;;;;;5056103;28;20021;-84
2021/12/10 00:06:21;;;;;;;21.13;15.82;;;7.70;87.40;;;;;;5060836;28;20055;-85
2021/12/10 00:08:59;;;;;;;19.85;14.60;;;7.70;87.70;;;;;;5051773;28;20075;-84
2021/12/10 00:11:37;;;;;;;20.83;15.05;;;7.60;87.80;;;;;;5046682;28;20091;-84
2021/12/10 00:14:05;;;;;;;21.05;15.30;;;7.60;87.90;;;;;;5052264;28;20236;-84
2021/12/10 00:16:32;;;;;;;21.30;15.82;;;7.60;87.90;;;;;;5053119;28;20029;-84
2021/12/10 00:19:13;;;;;;;21.67;16.35;;;7.70;88.00;;;;;;5050532;28;20554;-83
2021/12/10 00:21:39;;;;;;;21.85;15.68;;;7.70;87.90;;;;;;5048629;28;20064;-84
2021/12/10 00:24:05;;;;;;;20.65;15.75;;;7.80;87.80;;;;;;5052602;28;20036;-84
2021/12/10 00:26:31;;;;;;;24.45;15.82;;;7.80;87.70;;;;;;5039313;28;20028;-84
2021/12/10 00:29:02;;;;;;;20.40;15.07;;;7.80;87.60;;;;;;5051820;28;20108;-85
2021/12/10 00:34:24;;;;;;;21.83;16.63;;;7.80;87.10;;;;;;5042667;28;20064;-85
2021/12/10 00:36:52;;;;;;;23.17;17.73;;;7.70;87.20;;;;;;5038737;28;20020;-83
2021/12/10 00:39:24;;;;;;;21.83;15.73;;;7.50;87.90;;;;;;5052950;28;20033;-84
2021/12/10 00:41:51;;;;;;;21.38;16.15;;;7.50;87.90;;;;;;5051799;28;20507;-83
2021/12/10 00:44:17;;;;;;;25.48;17.95;;;7.60;87.80;;;;;;5052681;28;20057;-84
2021/12/10 00:46:43;;;;;;;20.95;15.35;;;7.60;87.80;;;;;;5058690;28;20063;-83
2021/12/10 00:49:09;;;;;;;22.83;16.20;;;7.60;87.80;;;;;;5053163;28;20040;-83
2021/12/10 00:51:36;;;;;;;22.92;15.55;;;7.60;87.90;;;;;;5052189;28;20024;-83
2021/12/10 00:54:05;;;;;;;22.25;16.13;;;7.60;88.00;;;;;;5053092;28;20039;-84
2021/12/10 00:56:31;;;;;;;18.42;14.18;;;7.60;88.00;;;;;;5052670;28;20496;-84
2021/12/10 00:58:56;;;;;;;19.27;14.98;;;7.70;88.00;;;;;;5043319;28;20037;-83
2021/12/10 01:01:26;;;;;;;20.05;15.70;;;7.70;88.50;;;;;;5051847;28;20499;-84
2021/12/10 01:03:56;;;;;;;19.67;15.17;;;7.80;88.10;;;;;;5041423;28;20030;-83
2021/12/10 01:06:24;;;;;;;20.98;14.75;;;7.80;87.90;;;;;;5053458;28;20059;-82
2021/12/10 01:08:54;;;;;;;19.65;15.48;;;7.80;87.70;;;;;;5048321;28;20473;-83
2021/12/10 01:11:26;;;;;;;18.60;14.20;;;7.80;87.60;;;;;;5040825;28;20576;-82
2021/12/10 01:13:58;;;;;;;17.70;13.68;;;7.80;87.30;;;;;;5048734;28;20025;-82
2021/12/10 01:24:53;;;;;;;17.50;13.65;;;7.50;87.80;;;;;;5052274;28;20094;-82
2021/12/10 01:27:32;;;;;;;17.88;13.73;;;7.50;88.10;;;;;;5048025;28;20090;-82
2021/12/10 01:30:13;;;;;;;17.95;14.85;;;7.60;88.10;;;;;;5055432;28;20021;-82
2021/12/10 01:32:43;;;;;;;18.55;14.23;;;7.60;88.10;;;;;;5049243;28;20425;-82
2021/12/10 01:35:12;;;;;;;19.40;14.27;;;7.60;88.00;;;;;;5044305;28;20048;-82
2021/12/10 01:37:38;;;;;;;20.17;15.02;;;7.70;88.10;;;;;;5049284;28;20116;-82
2021/12/10 01:40:06;;;;;;;17.40;13.85;;;7.60;88.40;;;;;;5049812;28;20119;-82
2021/12/10 01:42:45;;;;;;;18.55;13.25;;;7.60;88.40;;;;;;5050608;28;20028;-82
2021/12/10 01:45:20;;;;;;;16.10;12.45;;;7.60;88.50;;;;;;5050069;28;20075;-82
2021/12/10 01:47:59;;;;;;;16.77;12.45;;;7.60;88.40;;;;;;5048863;28;20112;-82
2021/12/10 01:50:27;;;;;;;15.60;12.00;;;7.60;88.40;;;;;;5046131;28;20025;-82
2021/12/10 01:52:58;;;;;;;19.38;13.98;;;7.60;88.60;;;;;;5041479;28;20037;-82
2021/12/10 01:55:26;;;;;;;16.67;13.48;;;7.60;88.60;;;;;;5041010;28;20518;-82
2021/12/10 01:57:53;;;;;;;17.48;13.32;;;7.70;88.70;;;;;;5055135;28;20547;-82
2021/12/10 02:00:23;;;;;;;16.65;13.77;;;7.70;88.70;;;;;;5048130;28;20380;-82
2021/12/10 02:02:49;;;;;;;19.63;13.93;;;7.80;88.70;;;;;;5059012;28;20049;-81
2021/12/10 02:05:16;;;;;;;19.20;13.82;;;7.80;88.50;;;;;;5054374;28;20060;-82
2021/12/10 02:07:42;;;;;;;17.77;14.05;;;7.90;88.40;;;;;;5054371;28;20041;-82
2021/12/10 02:10:10;;;;;;;17.58;13.15;;;7.90;88.20;;;;;;5055103;28;20487;-81
2021/12/10 02:12:35;;;;;;;21.00;17.50;;;8.00;88.10;;;;;;5040646;28;20043;-82
2021/12/10 02:15:03;;;;;;;17.00;13.38;;;8.00;87.50;;;;;;5054236;28;20096;-82
2021/12/10 02:17:41;;;;;;;16.02;13.07;;;7.80;88.10;;;;;;5053699;28;20037;-82
2021/12/10 02:20:25;;;;;;;15.95;12.38;;;7.70;88.10;;;;;;5050335;28;20033;-82
2021/12/10 02:22:52;;;;;;;16.65;13.38;;;7.70;88.30;;;;;;5068527;28;20077;-83
2021/12/10 02:25:22;;;;;;;15.95;12.25;;;7.70;88.90;;;;;;5055091;28;20423;-83
2021/12/10 02:27:49;;;;;;;19.75;16.40;;;7.70;88.20;;;;;;5053740;28;20433;-83
2021/12/10 02:30:17;;;;;;;21.92;15.88;;;7.50;88.40;;;;;;5050000;28;20028;-84
2021/12/10 02:32:42;;;;;;;22.70;17.83;;;7.40;89.00;;;;;;5047071;28;20535;-84
2021/12/10 02:35:11;;;;;;;19.88;16.13;;;7.40;88.90;;;;;;5056569;28;20060;-84
2021/12/10 02:37:39;;;;;;;17.02;13.50;;;7.20;89.90;;;;;;5063543;28;20776;-82
2021/12/10 02:40:07;;;;;;;15.68;11.88;;;7.20;90.00;;;;;;5053996;28;20032;-82
2021/12/10 02:42:33;;;;;;;27.08;19.10;;;7.20;89.70;;;;;;5048633;28;20501;-82
2021/12/10 02:44:59;;;;;;;20.75;15.73;;;7.20;89.40;;;;;;5052645;28;20404;-83
2021/12/10 02:47:25;;;;;;;18.15;13.93;;;7.20;89.90;;;;;;5064798;28;20108;-83
2021/12/10 02:49:51;;;;;;;20.83;14.93;;;7.20;89.50;;;;;;5052283;28;20144;-83
2021/12/10 02:52:19;;;;;;;13.23;11.52;;;7.30;89.30;;;;;;5049848;28;20112;-83
2021/12/10 02:54:45;;;;;;;14.93;12.73;;;7.20;89.20;;;;;;5052221;28;20026;-83
2021/12/10 02:57:15;;;;;;;15.77;13.07;;;7.20;89.10;;;;;;5052815;28;20122;-82
2021/12/10 02:59:41;;;;;;;15.85;11.95;;;7.10;89.30;;;;;;5057956;28;20033;-82
2021/12/10 03:02:13;;;;;;;15.68;12.55;;;7.20;89.20;;;;;;5054995;28;20544;-82
2021/12/10 03:04:40;;;;;;;15.02;12.02;;;7.30;89.20;;;;;;5054397;28;20576;-82
2021/12/10 03:07:12;;;;;;;15.40;11.93;;;7.30;89.10;;;;;;5054331;28;20028;-82
2021/12/10 03:09:39;;;;;;;15.10;12.57;;;7.30;88.90;;;;;;5041437;28;20029;-82
2021/12/10 03:12:06;;;;;;;13.82;11.65;;;7.40;88.70;;;;;;5050080;28;20431;-82
2021/12/10 03:14:36;;;;;;;15.68;12.00;;;7.40;88.40;;;;;;5046551;28;20488;-82
2021/12/10 03:17:06;;;;;;;14.23;11.00;;;7.50;88.10;;;;;;5053346;28;20033;-82
2021/12/10 03:19:32;;;;;;;14.85;11.63;;;7.50;87.90;;;;;;5054008;28;20099;-82
2021/12/10 03:21:59;;;;;;;12.73;10.70;;;7.50;87.70;;;;;;5052019;28;20124;-82
2021/12/10 03:24:27;;;;;;;14.13;11.25;;;7.50;87.50;;;;;;5052667;28;20036;-82
2021/12/10 03:26:54;;;;;;;16.08;11.48;;;7.50;87.40;;;;;;5053493;28;20108;-82
2021/12/10 03:29:22;;;;;;;13.35;10.43;;;7.50;87.30;;;;;;5052797;28;20045;-82
2021/12/10 03:31:49;;;;;;;14.35;11.00;;;7.50;87.10;;;;;;5053851;28;20029;-82
2021/12/10 03:34:15;;;;;;;12.63;10.40;;;7.60;87.10;;;;;;5053567;28;20044;-85
2021/12/10 03:36:45;;;;;;;12.77;10.38;;;7.60;86.80;;;;;;5054458;28;20071;-85
2021/12/10 03:39:15;;;;;;;10.43;9.32;;;7.60;86.60;;;;;;5064990;28;20428;-84
2021/12/10 03:41:41;;;;;;;11.85;10.27;;;7.60;86.20;;;;;;5052947;28;20032;-84
2021/12/10 03:44:09;;;;;;;12.68;9.90;;;7.50;86.10;;;;;;5055389;28;20052;-83
2021/12/10 03:46:34;;;;;;;13.20;10.00;;;7.50;85.90;;;;;;5052918;28;20033;-83
2021/12/10 03:49:03;;;;;;;11.20;9.95;;;7.50;86.00;;;;;;5048717;28;20032;-84
2021/12/10 03:51:30;;;;;;;12.82;10.10;;;7.50;86.10;;;;;;5053939;28;20029;-83
2021/12/10 03:53:57;;;;;;;11.20;9.48;;;7.50;86.00;;;;;;5051375;28;20031;-83
2021/12/10 03:56:25;;;;;;;10.60;9.02;;;7.50;86.10;;;;;;5051079;28;20025;-83
2021/12/10 03:58:52;;;;;;;12.02;9.05;;;7.50;86.50;;;;;;5049213;28;20059;-84
2021/12/10 04:01:22;;;;;;;10.68;8.93;;;7.50;85.90;;;;;;5058200;28;20021;-83
2021/12/10 04:03:51;;;;;;;11.60;8.75;;;7.50;85.80;;;;;;5050171;28;20036;-83
2021/12/10 04:06:18;;;;;;;10.00;7.88;;;7.50;85.60;;;;;;5051966;28;20053;-82
2021/12/10 04:08:44;;;;;;;11.55;8.98;;;7.50;85.60;;;;;;5046661;28;20030;-83
2021/12/10 04:11:15;;;;;;;10.18;8.55;;;7.50;85.40;;;;;;5052224;28;20021;-83
2021/12/10 04:13:41;;;;;;;11.00;9.05;;;7.50;85.40;;;;;;5052949;28;20032;-83
2021/12/10 04:16:07;;;;;;;10.27;8.30;;;7.50;85.30;;;;;;5053211;28;20025;-83
2021/12/10 04:18:35;;;;;;;12.57;8.55;;;7.50;85.20;;;;;;5065844;28;20036;-82
2021/12/10 04:21:02;;;;;;;10.90;8.43;;;7.50;85.10;;;;;;5057405;28;20457;-83
2021/12/10 04:23:27;;;;;;;10.40;8.38;;;7.50;85.00;;;;;;5062058;28;20029;-83
2021/12/10 04:25:53;;;;;;;8.32;7.50;;;7.50;84.70;;;;;;5056680;28;20028;-83
2021/12/10 04:28:21;;;;;;;9.80;8.00;;;7.50;84.80;;;;;;5055926;28;20032;-84
2021/12/10 04:30:48;;;;;;;10.32;8.18;;;7.50;84.60;;;;;;5051946;28;20051;-84
2021/12/10 04:33:17;;;;;;;10.65;7.97;;;7.40;84.70;;;;;;5053371;28;20052;-84
2021/12/10 04:35:48;;;;;;;9.90;8.10;;;7.40;84.70;;;;;;5052727;28;20519;-84
2021/12/10 04:38:15;;;;;;;9.40;7.13;;;7.40;84.60;;;;;;5048779;28;20489;-83
2021/12/10 04:40:42;;;;;;;9.20;7.32;;;7.40;84.50;;;;;;5041585;28;20044;-84
2021/12/10 04:43:08;;;;;;;9.18;7.80;;;7.50;84.60;;;;;;5053070;28;20025;-82
2021/12/10 04:45:34;;;;;;;9.30;7.85;;;7.50;84.50;;;;;;5051893;28;20032;-81
2021/12/10 04:48:02;;;;;;;10.18;8.20;;;7.50;84.50;;;;;;5048173;28;20486;-82
2021/12/10 04:50:33;;;;;;;9.93;7.95;;;7.40;84.50;;;;;;5048053;28;20376;-82
2021/12/10 04:53:01;;;;;;;9.70;7.78;;;7.40;84.50;;;;;;5056213;28;20419;-82
2021/12/10 04:55:29;;;;;;;9.32;7.50;;;7.40;84.50;;;;;;5076116;28;20115;-83
2021/12/10 04:57:55;;;;;;;11.45;7.25;;;7.40;84.30;;;;;;5046218;28;20396;-80
2021/12/10 05:00:26;;;;;;;8.85;7.18;;;7.40;84.30;;;;;;5050509;28;20117;-83
2021/12/10 05:02:55;;;;;;;9.55;7.55;;;7.40;84.20;;;;;;5047258;28;20021;-83
2021/12/10 05:05:21;;;;;;;9.85;8.40;;;7.30;84.40;;;;;;5051662;28;20493;-84
2021/12/10 05:07:47;;;;;;;8.45;7.45;;;7.20;84.60;;;;;;5051283;28;20021;-83
2021/12/10 05:10:15;;;;;;;9.05;7.70;;;7.10;84.60;;;;;;5049987;28;20124;-83
2021/12/10 05:12:41;;;;;;;10.80;8.05;;;7.00;85.00;;;;;;5048726;28;20107;-83
2021/12/10 05:15:12;;;;;;;9.45;7.97;;;7.00;85.20;;;;;;5050974;28;20036;-83
2021/12/10 05:17:38;;;;;;;;;;;6.90;85.30;;;;;;5053734;28;20090;-83
2021/12/10 05:20:15;;;;;;;9.38;7.80;;;7.00;85.50;;;;;;5061528;28;20019;-83
2021/12/10 05:22:43;;;;;;;10.05;7.35;;;7.00;85.40;;;;;;5051006;28;20033;-83
2021/12/10 05:25:10;;;;;;;10.60;8.30;;;7.00;85.20;;;;;;5058831;28;20048;-82
2021/12/10 05:27:36;;;;;;;10.40;8.98;;;6.90;85.20;;;;;;5046773;28;20064;-82
2021/12/10 05:30:04;;;;;;;12.73;8.77;;;6.90;85.20;;;;;;5049300;28;20026;-81
2021/12/10 05:32:30;;;;;;;10.13;8.52;;;6.90;85.30;;;;;;5054967;28;20545;-81
2021/12/10 05:34:55;;;;;;;10.27;8.30;;;6.90;85.50;;;;;;5062288;28;20025;-80
2021/12/10 05:37:22;;;;;;;10.18;9.00;;;6.90;85.60;;;;;;5053323;28;20029;-80
2021/12/10 05:39:48;;;;;;;9.10;8.00;;;6.90;85.50;;;;;;5057881;28;20505;-81
2021/12/10 05:42:15;;;;;;;11.05;8.45;;;6.90;85.60;;;;;;5056217;28;20036;-81
2021/12/10 05:44:41;;;;;;;11.38;8.25;;;6.90;85.60;;;;;;5055377;28;20423;-81
2021/12/10 05:47:07;;;;;;;11.02;8.50;;;6.90;85.50;;;;;;5053676;28;20071;-83
2021/12/10 05:49:33;;;;;;;11.85;8.38;;;6.90;85.60;;;;;;5057849;28;20062;-82
2021/12/10 05:51:59;;;;;;;11.25;8.07;;;6.90;85.60;;;;;;5052645;28;20028;-82
2021/12/10 05:54:25;;;;;;;9.65;8.50;;;6.90;85.50;;;;;;5053884;28;20029;-81
2021/12/10 05:56:51;;;;;;;10.38;8.23;;;6.90;85.50;;;;;;5054542;28;20048;-81
2021/12/10 05:59:17;;;;;;;12.00;8.85;;;6.80;85.70;;;;;;5061589;28;20079;-83
2021/12/10 06:01:44;;;;;;;11.25;9.13;;;6.80;85.60;;;;;;5048646;28;20391;-80
2021/12/10 06:04:10;;;;;;;9.82;8.82;;;6.80;85.60;;;;;;5052349;28;20033;-80
2021/12/10 06:06:36;;;;;;;11.75;8.65;;;6.90;85.80;;;;;;5040479;28;20034;-80
2021/12/10 06:09:06;;;;;;;12.05;8.98;;;6.90;85.80;;;;;;5055725;28;20024;-79
2021/12/10 06:11:33;;;;;;;12.05;9.25;;;6.90;85.80;;;;;;5052150;28;20029;-81
2021/12/10 06:13:58;;;;;;;9.48;8.30;;;6.90;85.70;;;;;;5053004;28;20099;-81
2021/12/10 06:16:24;;;;;;;9.85;8.40;;;6.90;85.50;;;;;;5049002;28;20063;-79
2021/12/10 06:18:51;;;;;;;10.65;8.32;;;6.90;85.40;;;;;;5051064;28;20033;-79
2021/12/10 06:21:17;;;;;;;11.55;8.45;;;7.00;85.30;;;;;;5048506;28;20397;-80
2021/12/10 06:23:43;;;;;;;9.55;7.82;;;7.00;85.10;;;;;;5048892;28;20036;-78
2021/12/10 06:26:08;;;;;;;10.55;7.40;;;7.00;84.80;;;;;;5047858;28;20036;-80
2021/12/10 06:28:35;;;;;;;11.75;7.93;;;7.00;85.00;;;;;;5051623;28;20078;-77
2021/12/10 06:31:02;;;;;;;9.77;7.60;;;6.90;85.10;;;;;;5042345;28;20036;-77
2021/12/10 06:33:29;;;;;;;9.95;7.90;;;6.90;85.00;;;;;;5043296;28;20045;-77
2021/12/10 06:36:00;;;;;;;8.82;7.25;;;6.90;85.00;;;;;;5047431;28;20481;-78
2021/12/10 06:38:27;;;;;;;9.82;7.80;;;7.00;85.00;;;;;;5046192;28;20471;-78
2021/12/10 06:40:53;;;;;;;8.90;6.15;;;7.00;84.90;;;;;;5044891;28;20091;-79
2021/12/10 06:43:20;;;;;;;9.27;6.65;;;7.00;84.70;;;;;;5047155;28;20132;-79
2021/12/10 06:45:47;;;;;;;7.85;6.38;;;7.00;84.30;;;;;;5054630;28;20021;-80
2021/12/10 06:48:14;;;;;;;6.63;5.80;;;7.00;84.20;;;;;;5053546;28;20045;-79
2021/12/10 06:50:47;;;;;;;6.65;5.30;;;7.00;84.20;;;;;;5055056;28;20048;-79
2021/12/10 06:53:13;;;;;;;6.60;5.70;;;7.00;84.20;;;;;;5055002;28;20039;-80
2021/12/10 06:55:39;;;;;;;7.38;5.72;;;7.10;84.10;;;;;;5081400;28;20033;-79
2021/12/10 06:58:06;;;;;;;8.25;5.70;;;7.10;84.00;;;;;;5044782;28;20056;-80
2021/12/10 07:00:41;;;;;;;7.45;6.57;;;7.10;83.70;;;;;;5045688;28;20036;-80
2021/12/10 07:03:09;;;;;;;13.45;8.00;;;7.10;83.50;;;;;;5051705;28;20485;-79
2021/12/10 07:05:36;;;;;;;7.90;6.18;;;7.10;85.20;;;;;;5049749;28;20036;-78
2021/12/10 07:08:01;;;;;;;11.18;7.22;;;7.10;84.20;;;;;;5038534;28;20021;-78
2021/12/10 07:10:27;;;;;;;13.07;7.47;;;7.00;83.60;;;;;;5046110;28;20112;-77
2021/12/10 07:12:53;;;;;;;9.45;7.53;;;6.90;83.30;;;;;;5053448;28;20465;-79
2021/12/10 07:15:19;;;;;;;10.15;7.13;;;6.90;83.70;;;;;;5054236;28;20033;-78
2021/12/10 07:17:48;;;;;;;8.82;7.22;;;6.80;84.40;;;;;;5053568;28;20057;-79
2021/12/10 07:20:16;;;;;;;8.73;7.20;;;6.90;84.40;;;;;;5053315;28;20063;-79
2021/12/10 07:22:42;;;;;;;10.10;7.65;;;6.90;84.20;;;;;;5051045;28;20373;-79
2021/12/10 07:25:09;;;;;;;10.35;6.95;;;7.00;83.80;;;;;;5039038;28;20036;-78
2021/12/10 07:27:35;;;;;;;8.25;6.65;;;6.90;83.50;;;;;;5051216;28;20059;-79
2021/12/10 07:30:02;;;;;;;10.00;7.95;;;6.90;83.70;;;;;;5047859;28;20049;-80
2021/12/10 07:32:28;;;;;;;9.35;7.82;;;6.90;84.00;;;;;;5048784;28;20369;-79
2021/12/10 07:34:53;;;;;;;8.10;7.22;;;7.00;84.00;;;;;;5048463;28;20036;-79
2021/12/10 07:37:21;;;;;;;9.77;7.43;;;7.10;83.80;;;;;;5050838;28;20099;-82
2021/12/10 07:39:48;;;;;;;7.75;6.03;;;7.10;83.60;;;;;;5049177;28;20037;-82
2021/12/10 07:42:14;;;;;;;8.15;6.18;;;7.10;83.20;;;;;;5043070;28;20026;-82
2021/12/10 07:44:40;;;;;;;8.18;6.13;;;7.20;83.40;;;;;;5043311;28;20033;-80
2021/12/10 07:47:13;;;;;;;13.13;8.43;;;7.30;83.30;;;;;;5053344;28;20504;-79
2021/12/10 07:49:41;;;;;;;10.65;6.55;;;7.00;80.60;;;;;;5053250;28;20025;-79
2021/12/10 07:52:15;;;;;;;10.45;7.65;;;7.00;82.20;;;;;;5053005;28;20067;-79
2021/12/10 07:54:42;;;;;;;9.88;6.78;;;6.90;82.20;;;;;;5068265;28;20033;-79
2021/12/10 07:57:08;;;;;;;13.95;9.85;;;6.80;83.00;;;;;;5044675;28;20120;-80
2021/12/10 07:59:35;;;;;;;14.00;9.48;;;6.60;82.80;;;;;;5038003;28;20105;-79
2021/12/10 08:02:02;;;;;;;10.90;8.57;;;6.30;84.20;;;;;;5052253;28;20078;-79
2021/12/10 08:04:28;;;;;;;9.73;7.75;;;6.40;84.50;;;;;;5053361;28;20037;-79
2021/12/10 08:06:54;;;;;;;7.90;6.30;;;6.50;84.30;;;;;;5051746;28;20405;-79
2021/12/10 08:09:20;;;;;;;8.93;7.60;;;6.70;84.10;;;;;;5045448;28;20029;-79
2021/12/10 08:11:46;;;;;;;7.07;5.63;;;6.80;83.30;;;;;;5046023;28;20033;-83
2021/12/10 08:14:12;;;;;;;8.77;5.57;;;6.80;82.90;;;;;;5085287;28;20032;-83
2021/12/10 08:16:39;;;;;;;8.43;6.20;;;6.90;82.70;;;;;;5054953;28;20033;-83
2021/12/10 08:19:08;;;;;;;8.52;6.72;;;7.00;83.00;;;;;;5054651;28;20040;-83
2021/12/10 08:21:34;;;;;;;9.27;6.55;;;7.10;82.70;;;;;;5053910;28;20037;-83
2021/12/10 08:24:00;;;;;;;11.15;7.88;;;7.20;82.50;;;;;;5045566;28;20036;-79
2021/12/10 08:26:26;;;;;;;8.27;6.10;;;7.40;81.80;;;;;;5050860;28;20039;-80
2021/12/10 08:28:53;;;;;;;7.95;7.15;;;7.40;81.40;;;;;;5040160;28;20420;-79
2021/12/10 08:33:54;;;;;;;7.40;5.93;;;7.50;80.70;;;;;;5403131;22;20036;-85
2021/12/10 08:36:22;;;;;;;6.53;5.35;;;7.60;80.00;;;;;;5058418;28;20032;-85
2021/12/10 08:38:48;;;;;;;8.48;6.03;;;7.60;80.10;;;;;;5054004;28;20017;-84
2021/12/10 08:41:21;;;;;;;7.80;6.13;;;7.70;80.00;;;;;;5052636;28;20048;-84
2021/12/10 08:43:47;;;;;;;7.57;6.38;;;7.80;80.00;;;;;;5054302;28;20025;-84
2021/12/10 08:46:15;;;;;;;7.93;5.85;;;7.80;79.20;;;;;;5053537;28;20035;-84
2021/12/10 08:48:42;;;;;;;8.10;6.50;;;7.70;78.60;;;;;;5054787;28;20025;-85
2021/12/10 08:51:22;;;;;;;9.70;7.22;;;7.70;78.80;;;;;;5047944;28;20025;-85
2021/12/10 08:53:47;;;;;;;7.55;6.18;;;7.30;78.40;;;;;;5038060;28;20479;-84
2021/12/10 08:56:14;;;;;;;9.40;5.32;;;7.30;79.30;;;;;;5054931;28;20056;-85
2021/12/10 08:58:40;;;;;;;6.70;5.72;;;7.40;79.90;;;;;;5053246;28;20407;-85
2021/12/10 09:01:13;;;;;;;12.45;8.73;;;7.40;79.50;;;;;;5054426;28;20029;-84
2021/12/10 09:03:39;;;;;;;9.32;7.18;;;7.20;78.50;;;;;;5054679;28;20040;-84
2021/12/10 09:06:07;;;;;;;8.60;7.03;;;7.00;79.70;;;;;;5048261;28;20029;-85
2021/12/10 09:08:33;;;;;;;8.35;5.95;;;6.90;80.50;;;;;;5049200;28;20029;-84
2021/12/10 09:10:59;;;;;;;7.30;5.22;;;6.80;80.20;;;;;;5054225;28;20040;-84
2021/12/10 09:13:25;;;;;;;6.70;4.65;;;7.00;80.60;;;;;;5053747;28;20024;-84
2021/12/10 09:15:56;;;;;;;9.18;5.97;;;7.20;80.50;;;;;;5044882;28;20380;-85
2021/12/10 09:18:23;;;;;;;9.30;6.00;;;7.30;79.30;;;;;;5053343;28;20492;-84
2021/12/10 09:20:52;;;;;;;6.63;4.80;;;7.40;79.00;;;;;;5053580;28;20040;-85
2021/12/10 09:23:24;;;;;;;7.07;5.70;;;7.40;79.40;;;;;;5047052;28;20028;-85
2021/12/10 09:25:52;;;;;;;10.88;7.63;;;7.50;79.40;;;;;;5048860;28;20111;-85
2021/12/10 09:28:18;;;;;;;9.88;7.60;;;7.30;79.80;;;;;;5054360;28;20392;-83
2021/12/10 09:30:48;;;;;;;11.60;8.68;;;7.40;79.80;;;;;;5048821;28;20021;-84
2021/12/10 09:33:14;;;;;;;;;;;7.30;79.50;;;;;;5046509;28;20021;-84
2021/12/10 09:35:40;;;;;;;5.97;5.10;;;7.30;80.10;;;;;;5054655;28;19962;-83
2021/12/10 09:38:07;;;;;;;7.10;5.45;;;7.50;80.10;;;;;;5047685;28;20029;-84
2021/12/10 09:40:37;;;;;;;7.20;5.57;;;7.70;80.10;;;;;;5053933;28;20074;-85
2021/12/10 09:43:05;;;;;;;6.95;5.72;;;7.90;79.80;;;;;;5063557;28;20039;-84
2021/12/10 09:45:33;;;;;;;5.53;4.57;;;8.10;79.40;;;;;;5057340;28;20036;-85
2021/12/10 09:48:01;;;;;;;10.27;6.18;;;8.20;78.80;;;;;;5060800;28;20400;-83
2021/12/10 09:50:29;;;;;;;6.50;4.63;;;8.30;77.30;;;;;;5047385;28;20045;-84
2021/12/10 09:52:56;;;;;;;5.80;5.03;;;8.40;77.40;;;;;;5056517;28;20122;-85
2021/12/10 09:55:23;;;;;;;8.32;5.22;;;8.50;77.80;;;;;;5058185;28;20365;-84
2021/12/10 09:57:50;;;;;;;6.35;4.53;;;8.70;77.90;;;;;;5053891;28;20032;-85
2021/12/10 10:00:35;;;;;;;7.53;5.38;;;8.80;77.00;;;;;;5052876;28;20033;-85
2021/12/10 10:03:02;;;;;;;6.65;4.97;;;8.90;76.50;;;;;;5053046;28;20108;-88
2021/12/10 10:05:32;;;;;;;7.53;5.03;;;9.00;76.40;;;;;;5045850;28;20024;-87
2021/12/10 10:08:03;;;;;;;8.65;5.45;;;9.00;75.80;;;;;;5053704;28;20021;-84
2021/12/10 10:10:30;;;;;;;6.57;4.95;;;9.10;75.70;;;;;;5040612;28;20033;-85
2021/12/10 10:12:57;;;;;;;9.57;5.18;;;9.10;74.70;;;;;;5036458;28;20471;-84
2021/12/10 10:15:27;;;;;;;7.03;5.10;;;9.20;75.50;;;;;;5043834;28;20037;-86
2021/12/10 10:17:55;;;;;;;5.57;4.45;;;9.30;74.20;;;;;;5056279;28;20069;-86
2021/12/10 10:20:21;;;;;;;5.05;4.20;;;9.40;74.70;;;;;;5049076;28;20036;-86
2021/12/10 10:22:48;;;;;;;5.03;4.18;;;9.50;74.80;;;;;;5060113;28;20029;-87
2021/12/10 10:25:17;;;;;;;7.15;5.22;;;9.60;74.90;;;;;;5043156;28;20034;-87
2021/12/10 10:27:43;;;;;;;13.35;4.97;;;9.70;72.90;;;;;;5055961;28;20033;-87
2021/12/10 10:30:15;;;;;;;9.18;5.78;;;9.90;74.10;;;;;;5054882;28;20028;-86
2021/12/10 10:32:45;;;;;;;6.82;4.15;;;10.20;72.40;;;;;;5054006;28;20021;-86
2021/12/10 10:35:21;;;;;;;5.70;4.10;;;10.50;73.40;;;;;;5046460;28;20045;-87
2021/12/10 10:37:47;;;;;;;5.55;3.50;;;10.70;73.10;;;;;;5058168;28;20021;-86
2021/12/10 10:40:17;;;;;;;3.58;3.03;;;10.80;70.00;;;;;;5058016;28;20134;-86
2021/12/10 10:42:43;;;;;;;3.90;3.50;;;11.00;69.00;;;;;;5049922;28;20079;-87
2021/12/10 10:45:17;;;;;;;4.32;3.53;;;11.00;68.90;;;;;;5051639;28;20041;-87
2021/12/10 10:47:48;;;;;;;8.05;3.70;;;11.10;69.00;;;;;;5047969;28;20040;-87
2021/12/10 10:50:31;;;;;;;6.28;3.70;;;11.20;68.60;;;;;;5055139;28;20041;-86
2021/12/10 10:53:07;;;;;;;4.70;3.50;;;11.30;66.20;;;;;;5056718;28;20113;-86
2021/12/10 10:55:37;;;;;;;3.53;3.20;;;11.30;67.20;;;;;;5055314;28;20046;-85
2021/12/10 10:58:10;;;;;;;3.45;2.95;;;11.30;66.40;;;;;;5050756;28;20052;-85
2021/12/10 11:01:08;;;;;;;3.50;3.10;;;11.30;66.00;;;;;;5052508;28;20033;-84
2021/12/10 11:03:47;;;;;;;4.03;3.60;;;11.40;66.50;;;;;;5054289;28;20024;-83
2021/12/10 11:06:17;;;;;;;3.67;3.20;;;11.50;66.70;;;;;;5052619;28;20084;-83
2021/12/10 11:08:49;;;;;;;4.60;3.70;;;11.50;64.70;;;;;;5053818;28;20086;-81
2021/12/10 11:11:18;;;;;;;4.38;2.90;;;11.50;65.30;;;;;;5051118;28;20021;-83
2021/12/10 11:13:48;;;;;;;4.85;3.78;;;11.50;63.00;;;;;;5052776;28;20122;-86
2021/12/10 11:16:20;;;;;;;3.80;2.92;;;11.50;62.00;;;;;;5046262;28;20032;-83
2021/12/10 11:18:52;;;;;;;3.08;2.78;;;11.50;64.10;;;;;;5052074;28;20716;-83
2021/12/10 11:22:03;;;;;;;6.53;3.40;;;11.60;64.20;;;;;;5043218;28;20075;-82
2021/12/10 11:24:45;;;;;;;;;;;11.70;62.90;;;;;;5034926;28;20139;-82
2021/12/10 11:27:20;;;;;;;3.80;3.25;;;11.80;63.50;;;;;;5052411;28;20261;-82
2021/12/10 11:30:04;;;;;;;3.50;3.20;;;11.90;63.40;;;;;;5052057;28;20040;-82
2021/12/10 11:32:42;;;;;;;5.47;3.90;;;12.10;63.10;;;;;;5051906;28;20107;-82
2021/12/10 11:35:25;;;;;;;3.78;3.38;;;12.30;63.00;;;;;;5047702;28;20083;-82
2021/12/10 11:37:55;;;;;;;5.65;4.13;;;12.60;62.50;;;;;;5052936;28;20037;-83
2021/12/10 11:40:30;;;;;;;3.75;3.45;;;12.80;61.90;;;;;;5053283;28;20492;-82
2021/12/10 11:43:02;;;;;;;4.38;3.67;;;12.80;60.60;;;;;;5051346;28;21491;-82
2021/12/10 11:45:33;;;;;;;5.72;3.70;;;13.00;60.30;;;;;;5048938;28;20059;-85
2021/12/10 11:48:10;;;;;;;3.92;3.20;;;13.50;59.90;;;;;;5048178;28;20021;-84
2021/12/10 11:50:44;;;;;;;4.82;3.72;;;14.00;57.80;;;;;;5050927;28;20025;-84
2021/12/10 11:53:15;;;;;;;3.95;3.55;;;14.20;55.20;;;;;;5048502;28;20107;-84
2021/12/10 11:55:56;;;;;;;5.82;3.75;;;14.30;55.20;;;;;;5045760;28;20031;-86
2021/12/10 11:58:22;;;;;;;3.78;3.47;;;14.20;55.40;;;;;;5044013;28;20036;-85
2021/12/10 12:00:48;;;;;;;4.15;3.55;;;14.00;55.30;;;;;;5056205;28;20032;-83
2021/12/10 12:03:15;;;;;;;4.25;3.40;;;13.80;55.40;;;;;;5049815;28;20033;-85
2021/12/10 12:05:43;;;;;;;4.60;3.50;;;13.50;55.70;;;;;;5055051;28;20051;-84
2021/12/10 12:08:14;;;;;;;3.88;3.20;;;13.20;56.00;;;;;;5051472;28;20691;-85
2021/12/10 12:10:43;;;;;;;4.20;3.80;;;12.80;56.50;;;;;;5054596;28;20021;-84
2021/12/10 12:16:13;;;;;;;4.30;3.53;;;12.30;58.10;;;;;;5054275;28;20021;-83
2021/12/10 12:18:46;;;;;;;4.93;3.80;;;12.20;58.70;;;;;;5048329;28;20439;-82
2021/12/10 12:27:14;;;;;;;4.25;3.85;;;12.10;60.40;;;;;;5040422;28;20094;-85
2021/12/10 12:29:52;;;;;;;3.90;3.50;;;11.90;60.50;;;;;;5051734;28;20599;-83
2021/12/10 12:32:21;;;;;;;4.90;4.40;;;11.90;61.10;;;;;;5044754;28;20026;-82
2021/12/10 12:34:48;;;;;;;5.30;4.07;;;11.90;61.60;;;;;;5053252;28;20060;-82
2021/12/10 12:37:17;;;;;;;5.60;4.28;;;11.90;61.90;;;;;;5052216;28;20040;-82
2021/12/10 12:39:47;;;;;;;6.20;4.35;;;11.90;62.10;;;;;;5041536;28;20373;-83
2021/12/10 12:42:19;;;;;;;;;;;11.90;61.50;;;;;;5051743;28;20060;-82
2021/12/10 12:44:47;;;;;;;6.68;3.92;;;12.00;61.30;;;;;;5053444;28;19908;-83
2021/12/10 12:47:20;;;;;;;7.07;4.30;;;11.90;61.30;;;;;;5044605;28;20036;-82
2021/12/10 12:49:49;;;;;;;4.18;3.78;;;11.80;61.50;;;;;;5053140;28;20025;-83
2021/12/10 12:52:14;;;;;;;4.30;3.88;;;11.70;61.30;;;;;;5052181;28;20063;-84
2021/12/10 12:55:02;;;;;;;4.03;3.63;;;11.70;61.40;;;;;;5052178;28;20053;-83
2021/12/10 12:58:09;;;;;;;5.28;3.67;;;11.50;61.40;;;;;;5051754;28;20059;-83
2021/12/10 13:01:00;;;;;;;3.97;3.60;;;11.40;60.50;;;;;;5020392;28;20735;-85
2021/12/10 13:03:38;;;;;;;4.47;3.75;;;11.20;61.60;;;;;;5042467;28;20028;-85
2021/12/10 13:06:27;;;;;;;5.20;3.47;;;11.20;62.50;;;;;;5046860;28;20101;-85
2021/12/10 13:09:09;;;;;;;5.13;3.58;;;11.20;62.60;;;;;;5050821;28;20036;-86
2021/12/10 13:12:00;;;;;;;5.03;3.78;;;11.20;62.90;;;;;;5043986;28;20034;-86
2021/12/10 13:14:33;;;;;;;4.43;3.78;;;11.20;63.20;;;;;;5047308;28;20107;-86
2021/12/10 13:17:14;;;;;;;3.88;3.55;;;11.20;63.10;;;;;;5048318;28;20508;-84
2021/12/10 13:19:40;;;;;;;5.75;4.25;;;11.20;63.50;;;;;;5051342;28;20056;-82
2021/12/10 13:22:11;;;;;;;5.47;4.15;;;11.20;63.80;;;;;;5047628;28;20061;-83